Cut Bank Municipal Airport
KCTB : now visible

Airfield :











YOU CAN JOIN US ON...

 
LOGIN :

Register | Disclaimer

   EN    FR    IT 

 









Legend :    VFR   Marginal VFR   IFR   Intensive IFR   Very Intensive IFR
Visi :
Ceiling :
>= 8 km
>= 3000ft
5 to 8 km
1000 to 3000 ft
1500m to 5 km
500 to 1000 ft
800 to 1500m
200 to 500 ft
< 800m
< 200 ft
Symbols :   Thunderstorms  Fog  Heavy snow  Heavy precipitations  Wind > 20 kt






- Airport Elevation : 3854 ft


KCTB - Cut Bank Municipal

CURRENT METAR :
  • 030734Z AUTO 32014KT 9SM VCTS -RA FEW018 BKN038 OVC070 14/12 A3003 RMK AO2 LTG DSNT N AND NW RAB27 P0000 T01390122

EXPIRED METARs :
  • 030656Z AUTO 03006KT 10SM BKN075 15/12 A2999 RMK AO2 LTG DSNT W-N SLP131 T01500117 402500094
  • 030556Z AUTO 36010KT 10SM BKN070 16/12 A2999 RMK AO2 LTG DSNT NW SLP132 T01560117 10244 20139 50003
  • 030456Z AUTO 02011KT 10SM BKN080 16/12 A3000 RMK AO2 SLP136 T01610122

TAF KCTB
Valid from the 03 at 06:00 until the 04 at 06:00 UTC


030524Z 0306/0406 02011KT P6SM VCSH SCT050 BKN080
TEMPO 0308/0312 4SM -SHRA BR BKN050
FM031400 01012KT P6SM VCSH SCT015 BKN025
TEMPO 0314/0318 4SM -SHRA BR BKN015
FM031800 01012G21KT 5SM -SHRA BR SCT015 BKN020
PROB30 0320/0402 2SM TSRA BR OVC010CB
FM040400 33009KT 6SM -SHRA BR OVC015
KZLC FIR / North America



MET'MAP, your aeronautical weather chart ! - Copyright ORBIFLY December 2007 - Disclaimer

ORBIFLY MET'MAP TEAM :

Programming & Development : Alexandra Zaïnal
Original concept : Baudouin d'Aumeries
Technical & hardware support : Manuel Goepfert
Assistance : Marc-Olivier Méhu




SOURCES & CREDITS :

   NOAA       Earth
Advisory